sensor_id;sensor_type;location;lat;lon;timestamp;pressure;altitude;pressure_sealevel;temperature;humidity
15405;BME280;7801;48.124;11.590;2023-04-20T00:00:02;95318.50;;;7.04;90.08
15405;BME280;7801;48.124;11.590;2023-04-20T00:02:38;95317.19;;;7.01;90.23
15405;BME280;7801;48.124;11.590;2023-04-20T00:05:07;95313.87;;;7.30;89.43
15405;BME280;7801;48.124;11.590;2023-04-20T00:07:33;95305.56;;;7.51;88.57
15405;BME280;7801;48.124;11.590;2023-04-20T00:10:00;95311.34;;;7.53;88.30
15405;BME280;7801;48.124;11.590;2023-04-20T00:12:29;95301.84;;;7.57;88.00
15405;BME280;7801;48.124;11.590;2023-04-20T00:14:57;95305.66;;;7.36;88.68
15405;BME280;7801;48.124;11.590;2023-04-20T00:17:24;95298.09;;;7.24;88.60
15405;BME280;7801;48.124;11.590;2023-04-20T00:19:51;95293.63;;;7.15;88.74
15405;BME280;7801;48.124;11.590;2023-04-20T00:22:17;95296.97;;;7.31;88.43
15405;BME280;7801;48.124;11.590;2023-04-20T00:24:45;95284.22;;;6.99;89.82
15405;BME280;7801;48.124;11.590;2023-04-20T00:27:11;95285.81;;;7.00;89.98
15405;BME280;7801;48.124;11.590;2023-04-20T00:29:40;95280.94;;;7.22;89.75
15405;BME280;7801;48.124;11.590;2023-04-20T00:32:07;95277.28;;;7.18;89.67
15405;BME280;7801;48.124;11.590;2023-04-20T00:34:32;95274.84;;;7.27;89.29
15405;BME280;7801;48.124;11.590;2023-04-20T00:37:02;95267.34;;;7.00;89.64
15405;BME280;7801;48.124;11.590;2023-04-20T00:39:27;95268.13;;;7.05;89.36
15405;BME280;7801;48.124;11.590;2023-04-20T00:41:53;95266.22;;;7.11;89.58
15405;BME280;7801;48.124;11.590;2023-04-20T00:44:18;95258.94;;;6.93;90.00
15405;BME280;7801;48.124;11.590;2023-04-20T00:46:44;95251.00;;;6.98;90.15
15405;BME280;7801;48.124;11.590;2023-04-20T00:49:12;95252.94;;;6.82;90.54
15405;BME280;7801;48.124;11.590;2023-04-20T00:51:39;95252.87;;;6.92;91.08
15405;BME280;7801;48.124;11.590;2023-04-20T00:54:16;95259.97;;;6.97;90.80
15405;BME280;7801;48.124;11.590;2023-04-20T00:56:43;95244.28;;;6.66;90.45
15405;BME280;7801;48.124;11.590;2023-04-20T00:59:09;95242.38;;;6.82;90.43
15405;BME280;7801;48.124;11.590;2023-04-20T01:01:35;95246.44;;;6.59;90.87
15405;BME280;7801;48.124;11.590;2023-04-20T01:04:03;95243.28;;;6.62;90.67
15405;BME280;7801;48.124;11.590;2023-04-20T01:06:28;95234.06;;;6.54;91.47
15405;BME280;7801;48.124;11.590;2023-04-20T01:08:55;95220.34;;;6.63;91.64
15405;BME280;7801;48.124;11.590;2023-04-20T01:11:26;95220.00;;;6.74;91.63
15405;BME280;7801;48.124;11.590;2023-04-20T01:13:51;95218.50;;;6.63;92.16
15405;BME280;7801;48.124;11.590;2023-04-20T01:16:18;95220.00;;;6.74;90.89
15405;BME280;7801;48.124;11.590;2023-04-20T01:18:48;95208.19;;;6.67;91.10
15405;BME280;7801;48.124;11.590;2023-04-20T01:21:19;95206.63;;;6.61;92.02
15405;BME280;7801;48.124;11.590;2023-04-20T01:23:51;95204.28;;;6.59;92.03
15405;BME280;7801;48.124;11.590;2023-04-20T01:26:20;95196.81;;;6.71;91.83
15405;BME280;7801;48.124;11.590;2023-04-20T01:28:47;95202.69;;;6.63;92.34
15405;BME280;7801;48.124;11.590;2023-04-20T01:31:15;95196.91;;;6.56;92.42
15405;BME280;7801;48.124;11.590;2023-04-20T01:33:41;95200.63;;;6.50;92.76
15405;BME280;7801;48.124;11.590;2023-04-20T01:36:08;95204.25;;;6.64;92.20
15405;BME280;7801;48.124;11.590;2023-04-20T01:38:35;95203.16;;;6.70;91.30
15405;BME280;7801;48.124;11.590;2023-04-20T01:41:07;95204.53;;;6.63;91.21
15405;BME280;7801;48.124;11.590;2023-04-20T01:43:36;95201.22;;;6.86;90.91
15405;BME280;7801;48.124;11.590;2023-04-20T01:46:04;95207.34;;;6.81;90.60
15405;BME280;7801;48.124;11.590;2023-04-20T01:48:30;95205.53;;;6.67;89.85
15405;BME280;7801;48.124;11.590;2023-04-20T01:50:57;95205.22;;;6.83;90.08
15405;BME280;7801;48.124;11.590;2023-04-20T01:53:23;95198.91;;;6.74;90.64
15405;BME280;7801;48.124;11.590;2023-04-20T01:55:50;95194.41;;;6.80;90.62
15405;BME280;7801;48.124;11.590;2023-04-20T01:58:19;95185.97;;;6.83;89.63
15405;BME280;7801;48.124;11.590;2023-04-20T02:00:46;95183.63;;;6.76;89.54
15405;BME280;7801;48.124;11.590;2023-04-20T02:03:12;95190.06;;;6.55;89.83
15405;BME280;7801;48.124;11.590;2023-04-20T02:05:38;95183.09;;;6.74;89.81
15405;BME280;7801;48.124;11.590;2023-04-20T02:08:05;95186.63;;;6.60;89.20
15405;BME280;7801;48.124;11.590;2023-04-20T02:10:32;95179.50;;;6.55;89.61
15405;BME280;7801;48.124;11.590;2023-04-20T02:12:58;95183.28;;;6.34;90.01
15405;BME280;7801;48.124;11.590;2023-04-20T02:15:23;95173.72;;;6.58;89.38
15405;BME280;7801;48.124;11.590;2023-04-20T02:17:50;95173.88;;;6.72;89.02
15405;BME280;7801;48.124;11.590;2023-04-20T02:20:16;95168.69;;;6.62;89.06
15405;BME280;7801;48.124;11.590;2023-04-20T02:22:46;95168.19;;;6.54;89.18
15405;BME280;7801;48.124;11.590;2023-04-20T02:25:13;95174.50;;;6.59;89.40
15405;BME280;7801;48.124;11.590;2023-04-20T02:27:40;95170.66;;;6.36;89.25
15405;BME280;7801;48.124;11.590;2023-04-20T02:30:07;95168.53;;;6.38;90.11
15405;BME280;7801;48.124;11.590;2023-04-20T02:32:34;95164.22;;;6.57;89.64
15405;BME280;7801;48.124;11.590;2023-04-20T02:35:01;95175.38;;;6.39;88.69
15405;BME280;7801;48.124;11.590;2023-04-20T02:37:29;95173.78;;;6.43;89.60
15405;BME280;7801;48.124;11.590;2023-04-20T02:39:56;95173.03;;;6.32;90.00
15405;BME280;7801;48.124;11.590;2023-04-20T02:42:23;95165.12;;;6.27;90.32
15405;BME280;7801;48.124;11.590;2023-04-20T02:44:50;95166.50;;;6.19;90.62
15405;BME280;7801;48.124;11.590;2023-04-20T02:47:17;95170.38;;;6.42;90.10
15405;BME280;7801;48.124;11.590;2023-04-20T02:49:43;95155.50;;;6.62;89.63
15405;BME280;7801;48.124;11.590;2023-04-20T02:52:11;95156.50;;;6.71;89.10
15405;BME280;7801;48.124;11.590;2023-04-20T02:54:36;95154.19;;;6.64;89.97
15405;BME280;7801;48.124;11.590;2023-04-20T02:57:01;95149.09;;;6.73;88.59
15405;BME280;7801;48.124;11.590;2023-04-20T02:59:27;95140.00;;;6.50;89.73
15405;BME280;7801;48.124;11.590;2023-04-20T03:01:53;95141.53;;;6.61;89.64
15405;BME280;7801;48.124;11.590;2023-04-20T03:04:25;95138.41;;;6.59;89.89
15405;BME280;7801;48.124;11.590;2023-04-20T03:06:55;95132.09;;;6.50;90.35
15405;BME280;7801;48.124;11.590;2023-04-20T03:09:23;95128.38;;;6.56;89.60
15405;BME280;7801;48.124;11.590;2023-04-20T03:11:50;95132.13;;;6.45;90.33
15405;BME280;7801;48.124;11.590;2023-04-20T03:14:19;95129.72;;;6.53;89.96
15405;BME280;7801;48.124;11.590;2023-04-20T03:16:45;95132.88;;;6.55;90.27
15405;BME280;7801;48.124;11.590;2023-04-20T03:19:11;95136.84;;;6.48;90.78
15405;BME280;7801;48.124;11.590;2023-04-20T03:21:36;95130.87;;;6.37;91.38
15405;BME280;7801;48.124;11.590;2023-04-20T03:24:03;95131.13;;;6.36;91.07
15405;BME280;7801;48.124;11.590;2023-04-20T03:26:32;95126.06;;;6.44;91.47
15405;BME280;7801;48.124;11.590;2023-04-20T03:28:59;95125.78;;;6.46;91.77
15405;BME280;7801;48.124;11.590;2023-04-20T03:31:27;95122.09;;;6.52;91.30
15405;BME280;7801;48.124;11.590;2023-04-20T03:33:54;95124.53;;;6.43;91.14
15405;BME280;7801;48.124;11.590;2023-04-20T03:36:19;95118.56;;;6.67;90.61
15405;BME280;7801;48.124;11.590;2023-04-20T03:38:48;95117.88;;;6.51;91.30
15405;BME280;7801;48.124;11.590;2023-04-20T03:41:16;95114.81;;;6.34;91.95
15405;BME280;7801;48.124;11.590;2023-04-20T03:43:43;95113.69;;;6.45;91.98
15405;BME280;7801;48.124;11.590;2023-04-20T03:46:08;95109.50;;;6.44;92.02
15405;BME280;7801;48.124;11.590;2023-04-20T03:48:33;95110.56;;;6.38;91.53
15405;BME280;7801;48.124;11.590;2023-04-20T03:51:01;95112.44;;;6.32;92.19
15405;BME280;7801;48.124;11.590;2023-04-20T03:53:28;95107.78;;;6.19;92.51
15405;BME280;7801;48.124;11.590;2023-04-20T03:55:53;95107.78;;;6.19;92.34
15405;BME280;7801;48.124;11.590;2023-04-20T03:58:19;95102.00;;;6.12;92.32
15405;BME280;7801;48.124;11.590;2023-04-20T04:00:46;95110.50;;;5.99;93.08
15405;BME280;7801;48.124;11.590;2023-04-20T04:03:15;95102.78;;;6.17;92.03
15405;BME280;7801;48.124;11.590;2023-04-20T04:05:42;95106.72;;;6.15;92.45
15405;BME280;7801;48.124;11.590;2023-04-20T04:08:12;95106.75;;;6.05;93.01
15405;BME280;7801;48.124;11.590;2023-04-20T04:10:38;95098.56;;;6.16;92.32
15405;BME280;7801;48.124;11.590;2023-04-20T04:13:05;95101.75;;;6.03;92.53
15405;BME280;7801;48.124;11.590;2023-04-20T04:15:31;95097.03;;;6.05;92.43
15405;BME280;7801;48.124;11.590;2023-04-20T04:17:59;95090.09;;;6.25;92.24
15405;BME280;7801;48.124;11.590;2023-04-20T04:20:25;95103.31;;;6.09;91.70
15405;BME280;7801;48.124;11.590;2023-04-20T04:22:51;95095.41;;;6.14;91.66
15405;BME280;7801;48.124;11.590;2023-04-20T04:25:17;95095.44;;;6.04;92.44
15405;BME280;7801;48.124;11.590;2023-04-20T04:28:09;95092.25;;;6.17;92.01
15405;BME280;7801;48.124;11.590;2023-04-20T04:30:36;95089.12;;;6.05;91.91
15405;BME280;7801;48.124;11.590;2023-04-20T04:33:06;95095.50;;;5.94;92.96
15405;BME280;7801;48.124;11.590;2023-04-20T04:35:38;95099.91;;;6.04;93.13
15405;BME280;7801;48.124;11.590;2023-04-20T04:38:07;95091.50;;;6.07;92.22
15405;BME280;7801;48.124;11.590;2023-04-20T04:40:34;95085.16;;;6.08;92.75
15405;BME280;7801;48.124;11.590;2023-04-20T04:43:03;95093.66;;;5.95;93.17
15405;BME280;7801;48.124;11.590;2023-04-20T04:45:29;95090.94;;;6.15;93.07
15405;BME280;7801;48.124;11.590;2023-04-20T04:48:03;95097.84;;;6.01;92.91
15405;BME280;7801;48.124;11.590;2023-04-20T04:50:30;95089.97;;;5.96;93.43
15405;BME280;7801;48.124;11.590;2023-04-20T04:53:03;95081.47;;;6.09;92.50
15405;BME280;7801;48.124;11.590;2023-04-20T04:55:31;95086.31;;;5.81;92.95
15405;BME280;7801;48.124;11.590;2023-04-20T04:57:57;95094.97;;;5.97;92.71
15405;BME280;7801;48.124;11.590;2023-04-20T05:00:25;95091.28;;;5.98;92.98
15405;BME280;7801;48.124;11.590;2023-04-20T05:02:52;95092.06;;;5.94;93.29
15405;BME280;7801;48.124;11.590;2023-04-20T05:05:21;95094.47;;;5.90;93.47
15405;BME280;7801;48.124;11.590;2023-04-20T05:07:47;95083.63;;;6.02;93.12
15405;BME280;7801;48.124;11.590;2023-04-20T05:10:14;95077.53;;;6.06;92.76
15405;BME280;7801;48.124;11.590;2023-04-20T05:12:41;95083.66;;;5.97;92.50
15405;BME280;7801;48.124;11.590;2023-04-20T05:15:08;95094.72;;;5.94;92.58
15405;BME280;7801;48.124;11.590;2023-04-20T05:17:34;95093.66;;;5.95;93.27
15405;BME280;7801;48.124;11.590;2023-04-20T05:20:01;95094.47;;;5.90;93.44
15405;BME280;7801;48.124;11.590;2023-04-20T05:22:30;95091.81;;;5.90;93.81
15405;BME280;7801;48.124;11.590;2023-04-20T05:24:56;95093.37;;;5.96;94.06
15405;BME280;7801;48.124;11.590;2023-04-20T05:27:22;95092.53;;;6.06;93.28
15405;BME280;7801;48.124;11.590;2023-04-20T05:29:48;95090.94;;;6.10;93.22
15405;BME280;7801;48.124;11.590;2023-04-20T05:32:15;95092.78;;;6.14;92.91
15405;BME280;7801;48.124;11.590;2023-04-20T05:34:40;95098.84;;;6.10;93.23
15405;BME280;7801;48.124;11.590;2023-04-20T05:37:11;95097.59;;;5.97;93.46
15405;BME280;7801;48.124;11.590;2023-04-20T05:39:38;95090.16;;;6.14;93.20
15405;BME280;7801;48.124;11.590;2023-04-20T05:42:08;95083.31;;;6.08;93.08
15405;BME280;7801;48.124;11.590;2023-04-20T05:44:35;95080.69;;;6.08;92.41
15405;BME280;7801;48.124;11.590;2023-04-20T05:47:02;95075.97;;;6.05;91.93
15405;BME280;7801;48.124;11.590;2023-04-20T05:49:32;95078.84;;;6.04;92.76
15405;BME280;7801;48.124;11.590;2023-04-20T05:51:57;95086.44;;;6.20;92.25
15405;BME280;7801;48.124;11.590;2023-04-20T05:54:26;95087.53;;;6.09;92.23
15405;BME280;7801;48.124;11.590;2023-04-20T05:56:56;95086.75;;;6.04;93.21
15405;BME280;7801;48.124;11.590;2023-04-20T05:59:25;95086.00;;;5.98;93.06
15405;BME280;7801;48.124;11.590;2023-04-20T06:01:53;95090.69;;;6.11;93.84
15405;BME280;7801;48.124;11.590;2023-04-20T06:04:22;95083.25;;;6.24;92.76
15405;BME280;7801;48.124;11.590;2023-04-20T06:06:47;95090.09;;;6.25;92.81
15405;BME280;7801;48.124;11.590;2023-04-20T06:09:13;95086.97;;;6.23;92.94
15405;BME280;7801;48.124;11.590;2023-04-20T06:11:40;95073.84;;;6.07;92.28
15405;BME280;7801;48.124;11.590;2023-04-20T06:14:05;95078.56;;;6.10;92.61
15405;BME280;7801;48.124;11.590;2023-04-20T06:16:34;95082.97;;;6.25;92.68
15405;BME280;7801;48.124;11.590;2023-04-20T06:19:01;95075.34;;;6.24;92.66
15405;BME280;7801;48.124;11.590;2023-04-20T06:21:26;95069.50;;;6.37;92.38
15405;BME280;7801;48.124;11.590;2023-04-20T06:23:53;95067.00;;;6.06;91.87
15405;BME280;7801;48.124;11.590;2023-04-20T06:29:42;95051.06;;;10.00;100.00
15405;BME280;7801;48.124;11.590;2023-04-20T06:32:08;95057.16;;;11.09;97.80
15405;BME280;7801;48.124;11.590;2023-04-20T06:34:34;95058.53;;;11.82;84.47
15405;BME280;7801;48.124;11.590;2023-04-20T06:37:07;95059.25;;;12.13;75.16
15405;BME280;7801;48.124;11.590;2023-04-20T06:39:33;95052.59;;;12.76;73.12
15405;BME280;7801;48.124;11.590;2023-04-20T06:42:01;95047.88;;;12.90;78.20
15405;BME280;7801;48.124;11.590;2023-04-20T06:44:27;95041.16;;;13.01;71.22
15405;BME280;7801;48.124;11.590;2023-04-20T06:46:53;95037.41;;;13.28;66.97
15405;BME280;7801;48.124;11.590;2023-04-20T06:49:21;95037.66;;;13.44;65.85
15405;BME280;7801;48.124;11.590;2023-04-20T06:51:48;95039.91;;;13.07;63.78
15405;BME280;7801;48.124;11.590;2023-04-20T06:54:16;95041.28;;;13.39;64.99
15405;BME280;7801;48.124;11.590;2023-04-20T06:56:43;95045.53;;;12.97;63.40
15405;BME280;7801;48.124;11.590;2023-04-20T06:59:08;95034.88;;;13.15;63.96
15405;BME280;7801;48.124;11.590;2023-04-20T07:01:37;95035.75;;;13.53;78.59
15405;BME280;7801;48.124;11.590;2023-04-20T07:04:03;95045.56;;;11.58;67.07
15405;BME280;7801;48.124;11.590;2023-04-20T07:06:30;95040.16;;;10.02;72.65
15405;BME280;7801;48.124;11.590;2023-04-20T07:08:57;95046.81;;;9.44;74.41
15405;BME280;7801;48.124;11.590;2023-04-20T07:11:23;95044.88;;;8.71;77.58
15405;BME280;7801;48.124;11.590;2023-04-20T07:13:50;95052.94;;;7.81;82.17
15405;BME280;7801;48.124;11.590;2023-04-20T07:16:16;95045.69;;;7.68;84.64
15405;BME280;7801;48.124;11.590;2023-04-20T07:18:45;95044.41;;;7.12;86.16
15405;BME280;7801;48.124;11.590;2023-04-20T07:21:11;95046.75;;;7.14;86.30
15405;BME280;7801;48.124;11.590;2023-04-20T07:23:40;95040.97;;;7.12;87.11
15405;BME280;7801;48.124;11.590;2023-04-20T07:26:05;95045.66;;;7.20;87.72
15405;BME280;7801;48.124;11.590;2023-04-20T07:28:35;95049.81;;;6.97;87.89
15405;BME280;7801;48.124;11.590;2023-04-20T07:31:04;95053.28;;;6.93;88.56
15405;BME280;7801;48.124;11.590;2023-04-20T07:33:30;95051.78;;;6.81;89.33
15405;BME280;7801;48.124;11.590;2023-04-20T07:35:59;95062.22;;;6.97;89.58
15405;BME280;7801;48.124;11.590;2023-04-20T07:38:27;95062.87;;;7.07;89.04
15405;BME280;7801;48.124;11.590;2023-04-20T07:40:57;95063.44;;;8.28;95.37
15405;BME280;7801;48.124;11.590;2023-04-20T07:43:24;95069.66;;;10.50;94.94
15405;BME280;7801;48.124;11.590;2023-04-20T07:45:54;95070.78;;;9.67;76.70
15405;BME280;7801;48.124;11.590;2023-04-20T07:48:24;95070.19;;;9.56;78.47
15405;BME280;7801;48.124;11.590;2023-04-20T07:50:52;95086.72;;;7.55;88.00
15405;BME280;7801;48.124;11.590;2023-04-20T07:53:19;95079.31;;;8.85;80.01
15405;BME280;7801;48.124;11.590;2023-04-20T07:55:45;95075.75;;;8.57;84.78
15405;BME280;7801;48.124;11.590;2023-04-20T07:58:13;95067.63;;;9.05;78.49
15405;BME280;7801;48.124;11.590;2023-04-20T08:00:48;95079.38;;;8.42;79.06
15405;BME280;7801;48.124;11.590;2023-04-20T08:03:15;95081.19;;;7.80;82.05
15405;BME280;7801;48.124;11.590;2023-04-20T08:05:42;95079.09;;;7.53;83.49
15405;BME280;7801;48.124;11.590;2023-04-20T08:08:10;95073.88;;;7.19;85.60
15405;BME280;7801;48.124;11.590;2023-04-20T08:10:36;95073.81;;;6.96;86.26
15405;BME280;7801;48.124;11.590;2023-04-20T08:13:01;95073.41;;;7.12;86.59
15405;BME280;7801;48.124;11.590;2023-04-20T08:15:29;95067.88;;;7.09;86.48
15405;BME280;7801;48.124;11.590;2023-04-20T08:17:56;95054.25;;;7.02;86.93
15405;BME280;7801;48.124;11.590;2023-04-20T08:20:21;95054.06;;;6.93;88.16
15405;BME280;7801;48.124;11.590;2023-04-20T08:22:49;95053.97;;;7.03;87.41
15405;BME280;7801;48.124;11.590;2023-04-20T08:25:20;95053.06;;;7.18;86.26
15405;BME280;7801;48.124;11.590;2023-04-20T08:27:45;95057.47;;;6.94;86.96
15405;BME280;7801;48.124;11.590;2023-04-20T08:30:11;95053.91;;;6.79;87.01
15405;BME280;7801;48.124;11.590;2023-04-20T08:32:38;95059.22;;;6.74;88.46
15405;BME280;7801;48.124;11.590;2023-04-20T08:35:05;95054.37;;;6.86;87.85
15405;BME280;7801;48.124;11.590;2023-04-20T08:37:33;95061.34;;;6.72;88.26
15405;BME280;7801;48.124;11.590;2023-04-20T08:40:02;95054.53;;;6.66;87.94
15405;BME280;7801;48.124;11.590;2023-04-20T08:42:28;95048.47;;;6.66;88.60
15405;BME280;7801;48.124;11.590;2023-04-20T08:44:54;95059.00;;;6.66;88.53
15405;BME280;7801;48.124;11.590;2023-04-20T08:47:23;95054.75;;;6.70;87.64
15405;BME280;7801;48.124;11.590;2023-04-20T08:49:52;95057.28;;;6.46;88.11
15405;BME280;7801;48.124;11.590;2023-04-20T08:52:20;95053.09;;;6.45;88.36
15405;BME280;7801;48.124;11.590;2023-04-20T08:54:45;95044.59;;;6.58;88.50
15405;BME280;7801;48.124;11.590;2023-04-20T08:57:12;95048.69;;;6.69;87.76
15405;BME280;7801;48.124;11.590;2023-04-20T08:59:39;95052.34;;;6.78;87.22
15405;BME280;7801;48.124;11.590;2023-04-20T09:02:14;95062.78;;;6.88;87.62
15405;BME280;7801;48.124;11.590;2023-04-20T09:04:41;95059.25;;;6.69;87.40
15405;BME280;7801;48.124;11.590;2023-04-20T09:07:22;95065.31;;;6.70;88.14
15405;BME280;7801;48.124;11.590;2023-04-20T09:09:59;95058.84;;;6.86;87.40
15405;BME280;7801;48.124;11.590;2023-04-20T09:12:27;95065.78;;;6.77;87.56
15405;BME280;7801;48.124;11.590;2023-04-20T09:14:55;95058.47;;;7.03;87.08
15405;BME280;7801;48.124;11.590;2023-04-20T09:17:34;95062.31;;;7.15;86.51
15405;BME280;7801;48.124;11.590;2023-04-20T09:20:01;95070.53;;;7.38;86.17
15405;BME280;7801;48.124;11.590;2023-04-20T09:22:35;95073.69;;;7.40;85.71
15405;BME280;7801;48.124;11.590;2023-04-20T09:25:17;95062.31;;;7.15;86.41
15405;BME280;7801;48.124;11.590;2023-04-20T09:28:00;95072.09;;;7.10;86.53
15405;BME280;7801;48.124;11.590;2023-04-20T09:30:39;95069.91;;;7.22;86.19
15405;BME280;7801;48.124;11.590;2023-04-20T09:33:16;95075.03;;;7.37;85.50
15405;BME280;7801;48.124;11.590;2023-04-20T09:35:45;95060.50;;;7.64;84.95
15405;BME280;7801;48.124;11.590;2023-04-20T09:38:15;95054.78;;;7.80;83.94
15405;BME280;7801;48.124;11.590;2023-04-20T09:40:41;95060.66;;;7.48;84.80
15405;BME280;7801;48.124;11.590;2023-04-20T09:43:27;95055.97;;;7.45;85.52
15405;BME280;7801;48.124;11.590;2023-04-20T09:45:55;95062.81;;;7.46;85.18
15405;BME280;7801;48.124;11.590;2023-04-20T09:48:33;95061.25;;;7.45;84.87
15405;BME280;7801;48.124;11.590;2023-04-20T09:51:02;95048.25;;;7.49;85.18
15405;BME280;7801;48.124;11.590;2023-04-20T09:53:29;95048.91;;;7.36;85.78
15405;BME280;7801;48.124;11.590;2023-04-20T09:55:59;95040.53;;;7.29;86.66
15405;BME280;7801;48.124;11.590;2023-04-20T09:58:35;95033.66;;;7.33;86.53
15405;BME280;7801;48.124;11.590;2023-04-20T10:01:02;95041.56;;;7.33;86.30
15405;BME280;7801;48.124;11.590;2023-04-20T10:03:30;95038.38;;;7.36;85.60
15405;BME280;7801;48.124;11.590;2023-04-20T10:05:59;95045.41;;;7.16;85.77
15405;BME280;7801;48.124;11.590;2023-04-20T10:08:41;95049.41;;;7.14;85.98
15405;BME280;7801;48.124;11.590;2023-04-20T10:11:07;95048.47;;;7.00;86.46
15405;BME280;7801;48.124;11.590;2023-04-20T10:13:32;95029.56;;;7.21;86.43
15405;BME280;7801;48.124;11.590;2023-04-20T10:15:59;95034.44;;;7.33;86.89
15405;BME280;7801;48.124;11.590;2023-04-20T10:18:37;95035.09;;;7.20;86.42
15405;BME280;7801;48.124;11.590;2023-04-20T10:21:07;95036.16;;;7.19;86.24
15405;BME280;7801;48.124;11.590;2023-04-20T10:23:50;95036.59;;;7.02;86.30
15405;BME280;7801;48.124;11.590;2023-04-20T10:26:18;95038.06;;;7.13;86.81
15405;BME280;7801;48.124;11.590;2023-04-20T10:28:51;95032.22;;;7.16;86.97
15405;BME280;7801;48.124;11.590;2023-04-20T10:31:22;95036.63;;;7.26;87.14
15405;BME280;7801;48.124;11.590;2023-04-20T10:34:02;95028.12;;;7.29;86.64
15405;BME280;7801;48.124;11.590;2023-04-20T10:36:34;95022.94;;;7.24;86.77
15405;BME280;7801;48.124;11.590;2023-04-20T10:39:23;95026.28;;;7.06;86.96
15405;BME280;7801;48.124;11.590;2023-04-20T10:41:58;95025.44;;;7.34;87.20
15405;BME280;7801;48.124;11.590;2023-04-20T10:44:27;95019.56;;;7.42;85.82
15405;BME280;7801;48.124;11.590;2023-04-20T10:46:55;95018.00;;;7.41;85.37
15405;BME280;7801;48.124;11.590;2023-04-20T10:49:32;95017.22;;;7.41;86.06
15405;BME280;7801;48.124;11.590;2023-04-20T10:52:00;95016.25;;;7.32;86.53
15405;BME280;7801;48.124;11.590;2023-04-20T10:54:35;95017.16;;;7.22;86.65
15405;BME280;7801;48.124;11.590;2023-04-20T10:57:01;95014.28;;;7.42;86.54
15405;BME280;7801;48.124;11.590;2023-04-20T10:59:28;95020.12;;;7.63;86.30
15405;BME280;7801;48.124;11.590;2023-04-20T11:01:53;95009.66;;;7.77;86.26
15405;BME280;7801;48.124;11.590;2023-04-20T11:04:31;95004.94;;;7.74;85.94
15405;BME280;7801;48.124;11.590;2023-04-20T11:07:07;94997.62;;;7.89;85.44
15405;BME280;7801;48.124;11.590;2023-04-20T11:09:36;95000.47;;;7.93;85.00
15405;BME280;7801;48.124;11.590;2023-04-20T11:12:10;94990.62;;;7.80;85.09
15405;BME280;7801;48.124;11.590;2023-04-20T11:14:59;94986.13;;;7.80;85.41
15405;BME280;7801;48.124;11.590;2023-04-20T11:17:36;94988.06;;;7.93;85.43
15405;BME280;7801;48.124;11.590;2023-04-20T11:20:08;94986.53;;;9.69;98.09
15405;BME280;7801;48.124;11.590;2023-04-20T11:22:37;94978.19;;;9.61;84.06
15405;BME280;7801;48.124;11.590;2023-04-20T11:25:06;94973.44;;;9.86;87.18
15405;BME280;7801;48.124;11.590;2023-04-20T11:27:43;94977.78;;;9.13;78.85
15405;BME280;7801;48.124;11.590;2023-04-20T11:30:10;94976.53;;;8.78;80.82
15405;BME280;7801;48.124;11.590;2023-04-20T11:32:35;94973.00;;;8.32;82.17
15405;BME280;7801;48.124;11.590;2023-04-20T11:35:08;94971.66;;;8.15;83.30
15405;BME280;7801;48.124;11.590;2023-04-20T11:38:04;94977.50;;;7.93;84.69
15405;BME280;7801;48.124;11.590;2023-04-20T11:40:29;94974.84;;;7.75;85.14
15405;BME280;7801;48.124;11.590;2023-04-20T11:43:00;94968.00;;;7.50;86.32
15405;BME280;7801;48.124;11.590;2023-04-20T11:45:31;94969.34;;;7.71;86.66
15405;BME280;7801;48.124;11.590;2023-04-20T11:47:59;94966.84;;;7.80;85.61
15405;BME280;7801;48.124;11.590;2023-04-20T11:50:25;94971.34;;;7.79;85.21
15405;BME280;7801;48.124;11.590;2023-04-20T11:52:50;94962.94;;;7.96;84.70
15405;BME280;7801;48.124;11.590;2023-04-20T11:55:16;94955.87;;;8.10;83.40
15405;BME280;7801;48.124;11.590;2023-04-20T11:57:45;94952.16;;;8.11;83.79
15405;BME280;7801;48.124;11.590;2023-04-20T12:00:14;94950.31;;;8.31;83.00
15405;BME280;7801;48.124;11.590;2023-04-20T12:02:43;94947.53;;;8.41;82.76
15405;BME280;7801;48.124;11.590;2023-04-20T12:05:13;94947.66;;;8.31;82.87
15405;BME280;7801;48.124;11.590;2023-04-20T12:07:39;94968.44;;;8.18;83.53
15405;BME280;7801;48.124;11.590;2023-04-20T12:10:06;94961.94;;;8.30;84.84
15405;BME280;7801;48.124;11.590;2023-04-20T12:12:33;94967.81;;;8.26;84.65
15405;BME280;7801;48.124;11.590;2023-04-20T12:14:58;94969.44;;;8.22;84.65
15405;BME280;7801;48.124;11.590;2023-04-20T12:17:25;94951.84;;;8.32;84.63
15405;BME280;7801;48.124;11.590;2023-04-20T12:19:52;94955.53;;;8.36;83.99
15405;BME280;7801;48.124;11.590;2023-04-20T12:22:19;94947.66;;;8.31;83.98
15405;BME280;7801;48.124;11.590;2023-04-20T12:24:46;94950.88;;;8.27;83.85
15405;BME280;7801;48.124;11.590;2023-04-20T12:27:14;94954.66;;;8.21;84.22
15405;BME280;7801;48.124;11.590;2023-04-20T12:29:39;94948.59;;;8.21;84.80
15405;BME280;7801;48.124;11.590;2023-04-20T12:32:09;94943.38;;;8.16;84.90
15405;BME280;7801;48.124;11.590;2023-04-20T12:34:39;94933.03;;;8.01;85.10
15405;BME280;7801;48.124;11.590;2023-04-20T12:37:05;94939.94;;;7.97;84.76
15405;BME280;7801;48.124;11.590;2023-04-20T12:39:31;94926.41;;;8.03;84.53
15405;BME280;7801;48.124;11.590;2023-04-20T12:41:56;94924.03;;;8.20;84.47
15405;BME280;7801;48.124;11.590;2023-04-20T12:44:22;94931.09;;;8.44;83.42
15405;BME280;7801;48.124;11.590;2023-04-20T12:46:48;94932.78;;;8.53;82.83
15405;BME280;7801;48.124;11.590;2023-04-20T12:49:16;94937.31;;;8.34;82.82
15405;BME280;7801;48.124;11.590;2023-04-20T12:51:43;94936.91;;;8.59;83.43
15405;BME280;7801;48.124;11.590;2023-04-20T12:54:10;94928.25;;;8.54;82.99
15405;BME280;7801;48.124;11.590;2023-04-20T12:56:36;94930.28;;;8.76;82.49
15405;BME280;7801;48.124;11.590;2023-04-20T12:59:03;94919.41;;;8.64;83.29
15405;BME280;7801;48.124;11.590;2023-04-20T13:01:31;94929.69;;;8.65;83.24
15405;BME280;7801;48.124;11.590;2023-04-20T13:04:00;94927.78;;;8.52;83.13
15405;BME280;7801;48.124;11.590;2023-04-20T13:06:28;94929.59;;;8.38;83.87
15405;BME280;7801;48.124;11.590;2023-04-20T13:08:57;94929.03;;;8.41;84.34
15405;BME280;7801;48.124;11.590;2023-04-20T13:11:25;94936.97;;;8.54;84.37
15405;BME280;7801;48.124;11.590;2023-04-20T13:13:52;94939.00;;;8.76;83.24
15405;BME280;7801;48.124;11.590;2023-04-20T13:16:18;94927.91;;;8.74;83.12
15405;BME280;7801;48.124;11.590;2023-04-20T13:18:44;94928.34;;;8.81;82.22